createdAt,value
2018-04-11T00:01:58.681Z,3.93
2018-04-11T00:04:25.221Z,4.13
2018-04-11T00:06:55.406Z,4.20
2018-04-11T00:09:21.969Z,4.23
2018-04-11T00:11:48.541Z,4.30
2018-04-11T00:14:15.110Z,4.30
2018-04-11T00:16:41.765Z,4.40
2018-04-11T00:19:08.314Z,4.60
2018-04-11T00:21:34.897Z,4.90
2018-04-11T00:24:01.481Z,5.30
2018-04-11T00:26:28.085Z,5.37
2018-04-11T00:28:54.658Z,4.97
2018-04-11T00:31:21.243Z,5.60
2018-04-11T00:33:47.803Z,5.43
2018-04-11T00:36:14.373Z,7.40
2018-04-11T00:38:40.949Z,7.00
2018-04-11T00:41:07.518Z,6.80
2018-04-11T00:43:34.100Z,8.03
2018-04-11T00:46:00.668Z,8.53
2018-04-11T00:48:27.240Z,7.53
2018-04-11T00:50:53.813Z,8.30
2018-04-11T00:53:26.237Z,7.30
2018-04-11T00:55:52.801Z,7.77
2018-04-11T00:58:19.435Z,7.53
2018-04-11T01:00:46.001Z,7.13
2018-04-11T01:03:12.573Z,7.37
2018-04-11T01:05:39.173Z,6.70
2018-04-11T01:08:05.819Z,7.40
2018-04-11T01:10:32.385Z,6.70
2018-04-11T01:12:58.992Z,8.13
2018-04-11T01:15:25.530Z,7.50
2018-04-11T01:17:52.093Z,6.50
2018-04-11T01:20:18.675Z,6.17
2018-04-11T01:22:45.237Z,6.43
2018-04-11T01:25:11.882Z,5.83
2018-04-11T01:27:38.443Z,6.13
2018-04-11T01:30:05.014Z,5.97
2018-04-11T01:32:31.579Z,5.47
2018-04-11T01:34:58.149Z,5.20
2018-04-11T01:37:24.725Z,5.67
2018-04-11T01:39:51.351Z,5.20
2018-04-11T01:42:17.893Z,5.50
2018-04-11T01:44:44.469Z,5.50
2018-04-11T01:47:11.046Z,5.83
2018-04-11T01:49:37.620Z,5.67
2018-04-11T01:52:04.194Z,5.60
2018-04-11T01:54:30.753Z,6.00
2018-04-11T01:56:57.402Z,5.90
2018-04-11T01:59:23.965Z,5.80
2018-04-11T02:01:50.542Z,5.93
2018-04-11T02:04:17.113Z,6.00
2018-04-11T02:06:43.697Z,6.30
2018-04-11T02:09:10.254Z,6.40
2018-04-11T02:11:36.829Z,6.33
2018-04-11T02:14:03.397Z,6.23
2018-04-11T02:16:29.965Z,6.57
2018-04-11T02:18:56.543Z,6.67
2018-04-11T02:21:23.109Z,6.40
2018-04-11T02:23:49.673Z,7.87
2018-04-11T02:26:16.249Z,7.90
2018-04-11T02:28:42.817Z,7.43
2018-04-11T02:31:09.393Z,6.90
2018-04-11T02:33:35.969Z,7.47
2018-04-11T02:36:02.543Z,8.03
2018-04-11T02:38:29.114Z,8.43
2018-04-11T02:40:56.534Z,8.70
2018-04-11T02:43:23.109Z,7.83
2018-04-11T02:45:49.676Z,8.03
2018-04-11T02:48:16.257Z,8.90
2018-04-11T02:50:42.825Z,8.20
2018-04-11T02:53:09.405Z,8.43
2018-04-11T02:55:36.089Z,8.03
2018-04-11T02:58:02.656Z,8.47
2018-04-11T03:00:29.225Z,8.50
2018-04-11T03:02:55.805Z,8.50
2018-04-11T03:05:22.377Z,8.97
2018-04-11T03:07:48.945Z,9.00
2018-04-11T03:10:15.522Z,9.10
2018-04-11T03:12:42.133Z,9.27
2018-04-11T03:15:08.714Z,9.50
2018-04-11T03:17:35.285Z,9.83
2018-04-11T03:20:01.867Z,9.63
2018-04-11T03:22:28.437Z,10.07
2018-04-11T03:24:55.863Z,9.60
2018-04-11T03:27:22.434Z,10.00
2018-04-11T03:29:49.012Z,10.40
2018-04-11T03:32:15.585Z,9.77
2018-04-11T03:34:42.161Z,9.63
2018-04-11T03:37:08.729Z,10.43
2018-04-11T03:39:35.322Z,10.10
2018-04-11T03:42:01.922Z,11.50
2018-04-11T03:44:28.479Z,10.70
2018-04-11T03:46:55.073Z,10.17
2018-04-11T03:49:21.653Z,10.50
2018-04-11T03:51:48.235Z,10.37
2018-04-11T03:54:14.813Z,10.27
2018-04-11T03:56:41.388Z,10.87
2018-04-11T03:59:07.967Z,11.73
2018-04-11T04:01:34.591Z,11.00
2018-04-11T04:04:01.148Z,11.97
2018-04-11T04:06:28.716Z,11.63
2018-04-11T04:08:55.967Z,11.87
2018-04-11T04:11:22.533Z,11.43
2018-04-11T04:13:54.953Z,11.63
2018-04-11T04:16:27.465Z,12.30
2018-04-11T04:18:59.874Z,12.50
2018-04-11T04:21:26.445Z,11.70
2018-04-11T04:23:53.025Z,11.70
2018-04-11T04:26:19.597Z,12.27
2018-04-11T04:28:46.195Z,13.20
2018-04-11T04:31:12.769Z,12.43
2018-04-11T04:33:39.352Z,12.00
2018-04-11T04:36:05.932Z,11.93
2018-04-11T04:38:32.509Z,11.40
2018-04-11T04:40:59.088Z,12.17
2018-04-11T04:43:25.670Z,12.97
2018-04-11T04:45:52.254Z,12.20
2018-04-11T04:48:18.830Z,12.33
2018-04-11T04:50:45.405Z,13.30
2018-04-11T04:53:11.985Z,14.50
2018-04-11T04:55:38.562Z,14.30
2018-04-11T04:58:05.144Z,13.37
2018-04-11T05:00:31.714Z,13.90
2018-04-11T05:02:58.377Z,15.70
2018-04-11T05:05:24.957Z,15.10
2018-04-11T05:07:51.532Z,15.33
2018-04-11T05:10:18.117Z,16.20
2018-04-11T05:12:44.695Z,16.63
2018-04-11T05:15:11.294Z,16.63
2018-04-11T05:17:37.861Z,17.00
2018-04-11T05:20:04.454Z,16.23
2018-04-11T05:22:31.035Z,15.50
2018-04-11T05:24:57.621Z,16.00
2018-04-11T05:27:24.200Z,16.60
2018-04-11T05:29:50.774Z,18.00
2018-04-11T05:32:17.349Z,16.83
2018-04-11T05:34:43.953Z,17.00
2018-04-11T05:37:10.532Z,16.60
2018-04-11T05:39:37.370Z,16.30
2018-04-11T05:42:03.946Z,15.93
2018-04-11T05:44:30.517Z,17.30
2018-04-11T05:46:57.098Z,17.37
2018-04-11T05:49:23.933Z,17.17
2018-04-11T05:51:50.513Z,16.33
2018-04-11T05:54:17.081Z,17.07
2018-04-11T05:56:44.217Z,17.70
2018-04-11T05:59:10.797Z,17.80
2018-04-11T06:01:37.438Z,18.43
2018-04-11T06:04:04.051Z,16.73
2018-04-11T06:06:30.606Z,17.70
2018-04-11T06:08:57.179Z,19.03
2018-04-11T06:11:23.773Z,17.60
2018-04-11T06:13:50.354Z,16.20
2018-04-11T06:16:16.942Z,16.90
2018-04-11T06:18:43.533Z,17.97
2018-04-11T06:21:10.103Z,18.30
2018-04-11T06:23:36.699Z,17.63
2018-04-11T06:26:03.270Z,17.37
2018-04-11T06:28:29.853Z,17.57
2018-04-11T06:30:56.429Z,16.90
2018-04-11T06:33:23.005Z,17.47
2018-04-11T06:35:49.582Z,18.03
2018-04-11T06:38:16.169Z,16.30
2018-04-11T06:40:42.749Z,17.10
2018-04-11T06:43:09.330Z,17.13
2018-04-11T06:45:35.922Z,17.43
2018-04-11T06:48:02.501Z,16.90
2018-04-11T06:50:29.109Z,17.33
2018-04-11T06:52:55.678Z,17.53
2018-04-11T06:55:22.257Z,18.30
2018-04-11T06:57:48.837Z,17.20
2018-04-11T07:00:15.418Z,17.07
2018-04-11T07:02:42.001Z,17.40
2018-04-11T07:05:08.579Z,16.80
2018-04-11T07:07:35.154Z,18.20
2018-04-11T07:10:01.730Z,17.93
2018-04-11T07:12:28.311Z,17.87
2018-04-11T07:14:54.979Z,18.17
2018-04-11T07:17:21.537Z,18.60
2018-04-11T07:19:48.117Z,17.40
2018-04-11T07:22:14.697Z,18.70
2018-04-11T07:24:41.280Z,18.63
2018-04-11T07:27:07.865Z,18.30
2018-04-11T07:29:34.445Z,18.57
2018-04-11T07:32:01.050Z,17.17
2018-04-11T07:34:27.623Z,16.83
2018-04-11T07:36:54.211Z,16.93
2018-04-11T07:39:20.818Z,16.73
2018-04-11T07:41:47.396Z,15.80
2018-04-11T07:44:14.007Z,17.27
2018-04-11T07:46:40.626Z,16.33
2018-04-11T07:49:07.217Z,15.77
2018-04-11T07:51:33.811Z,15.97
2018-04-11T07:54:00.386Z,16.80
2018-04-11T07:56:26.967Z,15.57
2018-04-11T07:58:53.562Z,16.67
2018-04-11T08:01:20.165Z,14.70
2018-04-11T08:03:46.717Z,14.00
2018-04-11T08:06:13.294Z,14.73
2018-04-11T08:08:39.877Z,14.53
2018-04-11T08:11:06.467Z,13.37
2018-04-11T08:13:33.054Z,13.00
2018-04-11T08:15:59.629Z,12.27
2018-04-11T08:18:26.259Z,12.00
2018-04-11T08:20:52.838Z,11.93
2018-04-11T08:23:19.482Z,12.17
2018-04-11T08:25:46.005Z,11.63
2018-04-11T08:28:12.587Z,11.30
2018-04-11T08:30:39.161Z,11.47
2018-04-11T08:33:05.741Z,10.70
2018-04-11T08:35:32.326Z,11.27
2018-04-11T08:37:58.905Z,10.70
2018-04-11T08:40:25.488Z,10.50
2018-04-11T08:42:52.057Z,11.43
2018-04-11T08:45:18.638Z,11.10
2018-04-11T08:47:45.230Z,11.07
2018-04-11T08:50:11.881Z,11.77
2018-04-11T08:52:38.491Z,11.23
2018-04-11T08:55:05.072Z,10.20
2018-04-11T08:57:31.656Z,10.50
2018-04-11T08:59:58.236Z,10.60
2018-04-11T09:02:24.830Z,9.60
2018-04-11T09:04:51.410Z,10.03
2018-04-11T09:07:18.130Z,10.03
2018-04-11T09:09:44.726Z,10.13
2018-04-11T09:12:11.297Z,10.30
2018-04-11T09:14:37.874Z,11.20
2018-04-11T09:17:04.449Z,11.40
2018-04-11T09:19:31.035Z,10.47
2018-04-11T09:21:57.615Z,10.97
2018-04-11T09:24:24.201Z,11.23
2018-04-11T09:26:50.799Z,11.50
2018-04-11T09:29:17.369Z,12.17
2018-04-11T09:31:43.997Z,11.80
2018-04-11T09:34:10.536Z,12.90
2018-04-11T09:36:37.117Z,13.00
2018-04-11T09:39:03.710Z,12.40
2018-04-11T09:41:30.310Z,12.80
2018-04-11T09:43:56.885Z,13.80
2018-04-11T09:46:23.457Z,13.33
2018-04-11T09:48:50.045Z,13.40
2018-04-11T09:51:16.625Z,15.23
2018-04-11T09:53:43.233Z,15.40
2018-04-11T09:56:09.814Z,15.30
2018-04-11T09:58:36.404Z,14.97
2018-04-11T10:01:04.765Z,15.70
2018-04-11T10:03:31.336Z,15.27
2018-04-11T10:05:57.985Z,15.30
2018-04-11T10:08:24.549Z,15.80
2018-04-11T10:10:51.140Z,15.13
2018-04-11T10:13:18.020Z,16.40
2018-04-11T10:15:44.589Z,15.97
2018-04-11T10:18:11.165Z,16.20
2018-04-11T10:20:38.069Z,16.80
2018-04-11T10:23:04.642Z,18.00
2018-04-11T10:25:31.236Z,16.80
2018-04-11T10:27:57.794Z,17.00
2018-04-11T10:30:24.393Z,18.10
2018-04-11T10:32:50.999Z,18.00
2018-04-11T10:35:17.624Z,17.60
2018-04-11T10:37:44.221Z,17.87
2018-04-11T10:40:10.793Z,18.50
2018-04-11T10:42:37.369Z,18.77
2018-04-11T10:45:03.947Z,18.77
2018-04-11T10:47:30.541Z,19.00
2018-04-11T10:49:57.107Z,18.73
2018-04-11T10:52:23.681Z,18.77
2018-04-11T10:54:50.257Z,19.80
2018-04-11T10:57:16.846Z,19.90
2018-04-11T10:59:43.429Z,19.80
2018-04-11T11:02:10.016Z,19.57
2018-04-11T11:04:36.581Z,19.90
2018-04-11T11:07:03.161Z,19.80
2018-04-11T11:09:29.781Z,19.90
2018-04-11T11:11:56.382Z,20.47
2018-04-11T11:14:22.959Z,20.73
2018-04-11T11:16:49.529Z,20.03
2018-04-11T11:19:16.106Z,21.50
2018-04-11T11:21:42.686Z,19.87
2018-04-11T11:24:09.286Z,19.33
2018-04-11T11:26:35.853Z,18.90
2018-04-11T11:29:02.438Z,18.90
2018-04-11T11:31:29.029Z,19.43
2018-04-11T11:33:55.606Z,19.00
2018-04-11T11:36:22.233Z,19.83
2018-04-11T11:38:48.875Z,19.53
2018-04-11T11:41:15.403Z,19.57
2018-04-11T11:43:41.976Z,19.47
2018-04-11T11:46:08.562Z,19.40
2018-04-11T11:48:35.160Z,19.67
2018-04-11T11:51:01.735Z,20.07
2018-04-11T11:53:28.333Z,17.60
2018-04-11T11:55:54.920Z,17.17
2018-04-11T11:58:21.625Z,17.90
2018-04-11T12:00:48.196Z,17.90
2018-04-11T12:03:14.769Z,19.40
2018-04-11T12:05:41.346Z,19.40
2018-04-11T12:08:07.933Z,18.33
2018-04-11T12:10:34.505Z,18.63
2018-04-11T12:13:01.440Z,18.60
2018-04-11T12:15:28.012Z,19.60
2018-04-11T12:17:54.594Z,17.40
2018-04-11T12:20:21.171Z,18.03
2018-04-11T12:22:47.815Z,19.93
2018-04-11T12:25:14.374Z,18.87
2018-04-11T12:27:40.949Z,20.17
2018-04-11T12:30:07.550Z,18.30
2018-04-11T12:32:34.137Z,18.73
2018-04-11T12:35:00.724Z,18.70
2018-04-11T12:37:27.348Z,18.87
2018-04-11T12:39:53.917Z,21.03
2018-04-11T12:42:20.496Z,20.67
2018-04-11T12:44:47.093Z,21.77
2018-04-11T12:47:13.670Z,21.43
2018-04-11T12:49:40.258Z,20.70
2018-04-11T12:52:06.829Z,19.17
2018-04-11T12:54:33.445Z,22.23
2018-04-11T12:57:00.025Z,21.37
2018-04-11T12:59:26.605Z,19.57
2018-04-11T13:01:53.201Z,20.70
2018-04-11T13:04:19.774Z,21.00
2018-04-11T13:06:46.349Z,17.83
2018-04-11T13:09:12.930Z,20.20
2018-04-11T13:11:39.596Z,19.83
2018-04-11T13:14:06.186Z,19.33
2018-04-11T13:16:32.795Z,20.87
2018-04-11T13:18:59.370Z,20.43
2018-04-11T13:21:25.946Z,20.10
2018-04-11T13:23:52.518Z,20.40
2018-04-11T13:26:19.100Z,21.17
2018-04-11T13:28:45.753Z,19.97
2018-04-11T13:31:12.330Z,20.97
2018-04-11T13:33:38.937Z,21.00
2018-04-11T13:36:05.511Z,21.10
2018-04-11T13:38:32.420Z,22.77
2018-04-11T13:40:59.002Z,20.07
2018-04-11T13:43:25.785Z,19.60
2018-04-11T13:45:52.369Z,17.53
2018-04-11T13:48:18.947Z,18.77
2018-04-11T13:50:45.561Z,18.83
2018-04-11T13:53:12.167Z,17.67
2018-04-11T13:55:38.738Z,18.50
2018-04-11T13:58:05.326Z,15.50
2018-04-11T14:00:31.897Z,18.70
2018-04-11T14:02:58.473Z,16.70
2018-04-11T14:05:25.417Z,16.00
2018-04-11T14:07:51.989Z,15.60
2018-04-11T14:10:18.590Z,14.67
2018-04-11T14:12:45.173Z,15.20
2018-04-11T14:15:11.761Z,16.03
2018-04-11T14:17:38.339Z,14.93
2018-04-11T14:20:04.929Z,14.90
2018-04-11T14:22:31.505Z,14.30
2018-04-11T14:24:58.145Z,14.30
2018-04-11T14:27:24.737Z,14.00
2018-04-11T14:29:51.315Z,13.50
2018-04-11T14:32:17.905Z,13.83
2018-04-11T14:34:44.483Z,12.20
2018-04-11T14:37:11.062Z,12.87
2018-04-11T14:39:37.641Z,13.07
2018-04-11T14:42:04.269Z,13.13
2018-04-11T14:44:30.883Z,12.83
2018-04-11T14:46:57.453Z,12.20
2018-04-11T14:49:24.062Z,10.57
2018-04-11T14:51:50.641Z,10.80
2018-04-11T14:54:17.243Z,11.50
2018-04-11T14:56:43.831Z,12.50
2018-04-11T14:59:10.413Z,12.63
2018-04-11T15:01:36.990Z,12.80
2018-04-11T15:04:03.569Z,12.47
2018-04-11T15:06:30.146Z,13.07
2018-04-11T15:08:56.737Z,11.77
2018-04-11T15:11:23.346Z,11.60
2018-04-11T15:13:49.897Z,11.33
2018-04-11T15:16:16.505Z,11.23
2018-04-11T15:18:43.087Z,10.53
2018-04-11T15:21:09.981Z,10.57
2018-04-11T15:23:36.554Z,10.50
2018-04-11T15:26:03.125Z,9.57
2018-04-11T15:28:29.709Z,9.70
2018-04-11T15:30:56.309Z,9.00
2018-04-11T15:33:23.186Z,8.53
2018-04-11T15:35:49.826Z,7.90
2018-04-11T15:38:16.374Z,6.93
2018-04-11T15:40:42.949Z,6.97
2018-04-11T15:43:09.514Z,8.20
2018-04-11T15:45:36.117Z,7.90
2018-04-11T15:48:02.696Z,8.00
2018-04-11T15:50:29.257Z,7.63
2018-04-11T15:52:55.854Z,7.30
2018-04-11T15:55:22.437Z,7.50
2018-04-11T15:57:49.009Z,7.03
2018-04-11T16:00:15.590Z,8.20
2018-04-11T16:02:42.159Z,7.53
2018-04-11T16:05:08.753Z,8.50
2018-04-11T16:07:35.325Z,8.80
2018-04-11T16:10:01.985Z,8.40
2018-04-11T16:12:28.533Z,7.83
2018-04-11T16:14:55.102Z,8.17
2018-04-11T16:17:21.696Z,7.40
2018-04-11T16:19:48.258Z,7.33
2018-04-11T16:22:14.853Z,6.50
2018-04-11T16:24:41.420Z,7.10
2018-04-11T16:27:08.002Z,6.80
2018-04-11T16:29:34.585Z,6.40
2018-04-11T16:32:01.146Z,8.00
2018-04-11T16:34:27.730Z,6.90
2018-04-11T16:36:54.322Z,5.53
2018-04-11T16:39:20.899Z,5.30
2018-04-11T16:41:47.466Z,5.57
2018-04-11T16:44:14.071Z,5.20
2018-04-11T16:46:40.741Z,5.00
2018-04-11T16:49:07.350Z,4.83
2018-04-11T16:51:33.906Z,4.80
2018-04-11T16:54:00.481Z,4.30
2018-04-11T16:56:27.057Z,3.90
2018-04-11T16:58:53.625Z,4.20
2018-04-11T17:01:20.200Z,4.00
2018-04-11T17:03:46.766Z,4.67
2018-04-11T17:06:13.347Z,5.40
2018-04-11T17:08:39.897Z,5.10
2018-04-11T17:11:06.491Z,4.23
2018-04-11T17:13:33.053Z,4.30
2018-04-11T17:15:59.627Z,4.27
2018-04-11T17:18:26.214Z,4.50
2018-04-11T17:20:58.682Z,4.33
2018-04-11T17:23:31.285Z,3.90
2018-04-11T17:26:03.725Z,3.63
2018-04-11T17:28:36.247Z,3.73
2018-04-11T17:31:19.582Z,4.10
2018-04-11T17:33:46.150Z,3.70
2018-04-11T17:36:12.720Z,3.97
2018-04-11T17:38:39.303Z,4.00
2018-04-11T17:41:05.878Z,4.03
2018-04-11T17:43:32.499Z,4.07
2018-04-11T17:45:59.073Z,4.20
2018-04-11T17:48:25.696Z,4.20
2018-04-11T17:50:52.284Z,4.27
2018-04-11T17:53:18.853Z,4.30
2018-04-11T17:55:45.438Z,3.93
2018-04-11T17:58:12.029Z,3.93
2018-04-11T18:00:38.609Z,4.80
2018-04-11T18:03:05.197Z,4.40
2018-04-11T18:05:31.774Z,4.50
2018-04-11T18:07:58.500Z,4.73
2018-04-11T18:10:25.118Z,4.93
2018-04-11T18:12:55.002Z,4.33
2018-04-11T18:15:21.958Z,4.00
2018-04-11T18:17:48.621Z,3.87
2018-04-11T18:20:16.309Z,3.80
2018-04-11T18:22:42.877Z,3.87
2018-04-11T18:25:12.721Z,4.00
2018-04-11T18:27:40.454Z,4.00
2018-04-11T18:30:07.046Z,4.00
2018-04-11T18:32:34.885Z,4.53
2018-04-11T18:35:01.462Z,4.00
2018-04-11T18:37:30.299Z,4.13
2018-04-11T18:39:56.869Z,4.00
2018-04-11T18:42:23.458Z,4.10
2018-04-11T18:44:50.089Z,4.60
2018-04-11T18:47:16.710Z,4.77
2018-04-11T18:49:43.265Z,4.43
2018-04-11T18:52:09.838Z,4.20
2018-04-11T18:54:36.408Z,4.83
2018-04-11T18:57:02.978Z,4.83
2018-04-11T18:59:29.556Z,4.57
2018-04-11T19:01:56.142Z,4.30
2018-04-11T19:04:22.710Z,4.30
2018-04-11T19:06:49.542Z,4.23
2018-04-11T19:09:16.177Z,4.37
2018-04-11T19:11:42.745Z,4.43
2018-04-11T19:14:09.334Z,4.67
2018-04-11T19:16:35.907Z,4.47
2018-04-11T19:19:02.489Z,4.80
2018-04-11T19:21:29.138Z,4.57
2018-04-11T19:23:55.883Z,4.57
2018-04-11T19:26:22.461Z,4.67
2018-04-11T19:28:49.062Z,4.60
2018-04-11T19:31:15.642Z,4.80
2018-04-11T19:33:42.218Z,4.70
2018-04-11T19:36:08.795Z,4.90
2018-04-11T19:38:35.381Z,4.93
2018-04-11T19:41:01.957Z,5.00
2018-04-11T19:43:28.528Z,4.77
2018-04-11T19:45:55.122Z,5.07
2018-04-11T19:48:21.741Z,5.30
2018-04-11T19:50:48.321Z,4.97
2018-04-11T19:53:15.080Z,5.77
2018-04-11T19:55:41.641Z,5.70
2018-04-11T19:58:08.216Z,5.53
2018-04-11T20:00:34.796Z,6.90
2018-04-11T20:03:01.390Z,7.80
2018-04-11T20:05:28.076Z,6.60
2018-04-11T20:07:54.761Z,6.87
2018-04-11T20:10:21.317Z,7.80
2018-04-11T20:12:47.927Z,7.97
2018-04-11T20:15:16.193Z,6.80
2018-04-11T20:17:42.870Z,5.90
2018-04-11T20:20:09.557Z,6.17
2018-04-11T20:22:36.155Z,6.30
2018-04-11T20:25:02.833Z,6.87
2018-04-11T20:27:29.535Z,6.03
2018-04-11T20:29:56.226Z,6.63
2018-04-11T20:32:23.325Z,6.50
2018-04-11T20:34:49.892Z,5.90
2018-04-11T20:37:17.197Z,6.37
2018-04-11T20:39:43.816Z,5.97
2018-04-11T20:42:10.463Z,6.37
2018-04-11T20:44:37.030Z,7.30
2018-04-11T20:47:03.611Z,6.30
2018-04-11T20:49:30.205Z,6.30
2018-04-11T20:51:56.791Z,7.10
2018-04-11T20:54:23.431Z,7.50
2018-04-11T20:56:50.007Z,6.90
2018-04-11T20:59:17.072Z,6.73
2018-04-11T21:01:43.637Z,7.07
2018-04-11T21:04:10.217Z,8.17
2018-04-11T21:06:36.794Z,8.30
2018-04-11T21:09:03.370Z,8.27
2018-04-11T21:11:29.940Z,8.07
2018-04-11T21:13:56.520Z,8.33
2018-04-11T21:16:23.087Z,8.37
2018-04-11T21:18:49.670Z,8.50
2018-04-11T21:21:16.242Z,7.60
2018-04-11T21:23:42.818Z,8.90
2018-04-11T21:26:09.393Z,8.60
2018-04-11T21:28:35.972Z,8.10
2018-04-11T21:31:02.558Z,8.70
2018-04-11T21:33:29.137Z,7.77
2018-04-11T21:35:55.710Z,7.50
2018-04-11T21:38:22.277Z,7.53
2018-04-11T21:40:48.857Z,7.43
2018-04-11T21:43:15.457Z,7.67
2018-04-11T21:45:42.033Z,7.10
2018-04-11T21:48:08.601Z,6.90
2018-04-11T21:50:35.183Z,7.20
2018-04-11T21:53:01.757Z,7.20
2018-04-11T21:55:28.357Z,8.00
2018-04-11T21:57:54.940Z,7.27
2018-04-11T22:00:21.513Z,7.30
2018-04-11T22:02:48.080Z,7.67
2018-04-11T22:05:14.658Z,7.77
2018-04-11T22:07:41.245Z,7.80
2018-04-11T22:10:08.205Z,7.70
2018-04-11T22:12:34.762Z,7.07
2018-04-11T22:15:01.338Z,7.57
2018-04-11T22:17:27.925Z,6.70
2018-04-11T22:19:54.493Z,7.20
2018-04-11T22:22:21.076Z,6.67
2018-04-11T22:24:47.632Z,6.73
2018-04-11T22:27:14.209Z,6.87
2018-04-11T22:29:40.782Z,6.97
2018-04-11T22:32:07.346Z,7.27
2018-04-11T22:34:34.216Z,6.60
2018-04-11T22:37:00.785Z,6.60
2018-04-11T22:39:27.358Z,6.10
2018-04-11T22:41:53.925Z,6.83
2018-04-11T22:44:20.506Z,6.70
2018-04-11T22:46:47.077Z,6.43
2018-04-11T22:49:13.657Z,7.00
2018-04-11T22:51:40.240Z,6.70
2018-04-11T22:54:06.802Z,6.60
2018-04-11T22:56:33.370Z,6.77
2018-04-11T22:58:59.943Z,6.17
2018-04-11T23:01:26.556Z,7.53
2018-04-11T23:03:53.114Z,7.70
2018-04-11T23:06:19.694Z,6.30
2018-04-11T23:08:46.269Z,7.33
2018-04-11T23:11:12.856Z,7.20
2018-04-11T23:13:39.425Z,7.00
2018-04-11T23:16:05.997Z,6.90
2018-04-11T23:18:32.593Z,7.00
2018-04-11T23:20:59.182Z,7.20
2018-04-11T23:23:25.743Z,6.30
2018-04-11T23:25:52.349Z,6.80
2018-04-11T23:28:18.919Z,7.30
2018-04-11T23:30:45.477Z,6.67
2018-04-11T23:33:12.058Z,6.80
2018-04-11T23:35:38.634Z,7.03
2018-04-11T23:38:05.214Z,7.40
2018-04-11T23:40:31.777Z,6.87
2018-04-11T23:42:58.359Z,6.70
2018-04-11T23:45:24.937Z,6.50
2018-04-11T23:47:51.508Z,6.60
2018-04-11T23:50:18.081Z,6.90
2018-04-11T23:52:44.661Z,6.83
2018-04-11T23:55:11.233Z,7.00
2018-04-11T23:57:37.809Z,7.00
